Time;durP1;ratioP1;P1;durP2;ratioP2;P2;SDS_P1;SDS_P2;PMS_P1;PMS_P2;Temp;Humidity;BMP_temperature;BMP_pressure;BME280_temperature;BME280_humidity;BME280_pressure;Samples;Min_cycle;Max_cycle;Signal;HPM_P1;HPM_P2
2022/09/06 00:01:23;;;;;;;4.38;2.70;;;22.10;81.30;;;;;;5008690;28;20038;-35
2022/09/06 00:03:49;;;;;;;4.00;3.03;;;22.10;81.60;;;;;;5004863;28;20041;-36
2022/09/06 00:06:18;;;;;;;4.38;3.38;;;22.10;82.00;;;;;;5005621;28;20518;-36
2022/09/06 00:08:45;;;;;;;6.57;3.30;;;22.00;82.90;;;;;;5010326;28;20057;-36
2022/09/06 00:11:11;;;;;;;7.72;3.70;;;21.90;84.20;;;;;;5010056;28;20457;-36
2022/09/06 00:13:37;;;;;;;9.00;3.92;;;21.90;85.00;;;;;;5008489;28;20057;-35
2022/09/06 00:16:08;;;;;;;5.40;3.10;;;21.90;85.30;;;;;;5009433;28;20046;-36
2022/09/06 00:18:35;;;;;;;7.32;4.00;;;21.90;86.60;;;;;;5007046;28;20038;-36
2022/09/06 00:21:02;;;;;;;7.88;3.75;;;21.80;86.90;;;;;;5009219;28;20042;-36
2022/09/06 00:23:27;;;;;;;6.65;4.40;;;21.80;87.40;;;;;;5006107;28;20046;-37
2022/09/06 00:26:01;;;;;;;5.70;3.30;;;21.80;87.80;;;;;;5008993;28;20030;-36
2022/09/06 00:28:27;;;;;;;6.68;4.10;;;21.70;88.30;;;;;;5005477;28;21851;-37
2022/09/06 00:30:53;;;;;;;6.05;3.92;;;21.70;88.50;;;;;;5008975;28;20579;-36
2022/09/06 00:33:18;;;;;;;4.32;3.25;;;21.70;88.60;;;;;;5004581;28;20088;-37
2022/09/06 00:35:46;;;;;;;4.97;3.88;;;21.70;88.90;;;;;;5006812;28;20137;-35
2022/09/06 00:38:12;;;;;;;6.20;3.47;;;21.70;89.30;;;;;;5008490;28;20041;-36
2022/09/06 00:40:37;;;;;;;6.70;3.00;;;21.70;89.80;;;;;;5006407;28;20065;-36
2022/09/06 00:43:03;;;;;;;5.47;3.92;;;21.60;90.00;;;;;;5005688;28;20495;-37
2022/09/06 00:45:30;;;;;;;7.60;4.00;;;21.60;90.20;;;;;;5007329;28;20026;-35
2022/09/06 00:47:58;;;;;;;5.68;3.30;;;21.60;90.70;;;;;;5004161;28;20050;-34
2022/09/06 00:50:24;;;;;;;4.88;3.10;;;21.60;90.30;;;;;;5009025;28;20048;-35
2022/09/06 00:52:52;;;;;;;7.70;4.20;;;21.60;90.60;;;;;;5005925;28;20088;-36
2022/09/06 00:55:19;;;;;;;6.55;3.83;;;21.50;91.20;;;;;;5008538;28;20128;-35
2022/09/06 00:57:49;;;;;;;4.15;3.08;;;21.50;91.60;;;;;;5004940;28;20048;-35
2022/09/06 01:00:17;;;;;;;7.13;4.28;;;21.50;91.80;;;;;;5007090;28;20042;-36
2022/09/06 01:02:43;;;;;;;12.98;4.47;;;21.40;91.80;;;;;;5006552;28;20038;-36
2022/09/06 01:05:10;;;;;;;5.55;4.00;;;21.40;92.00;;;;;;5006949;28;20034;-37
2022/09/06 01:08:03;;;;;;;9.15;3.70;;;21.30;92.10;;;;;;5004089;28;20065;-35
2022/09/06 01:10:50;;;;;;;6.70;4.78;;;21.30;92.80;;;;;;5005158;28;20072;-35
2022/09/06 01:13:33;;;;;;;7.43;5.95;;;21.20;93.80;;;;;;5005556;28;20050;-36
2022/09/06 01:16:24;;;;;;;8.00;6.40;;;21.10;93.70;;;;;;5004256;28;20057;-36
2022/09/06 01:19:28;;;;;;;6.88;4.78;;;20.90;94.90;;;;;;5003798;28;20487;-35
2022/09/06 01:22:13;;;;;;;11.15;6.72;;;20.90;95.50;;;;;;5003755;28;20376;-35
2022/09/06 01:25:13;;;;;;;9.98;6.53;;;20.80;95.20;;;;;;5006781;28;20068;-35
2022/09/06 01:28:09;;;;;;;6.90;6.00;;;20.80;96.60;;;;;;5000692;28;20042;-36
2022/09/06 01:30:42;;;;;;;10.63;6.82;;;20.80;97.20;;;;;;5005661;28;20077;-35
2022/09/06 01:33:11;;;;;;;8.68;6.55;;;20.80;97.10;;;;;;5005406;28;20527;-35
2022/09/06 01:35:46;;;;;;;7.60;5.85;;;20.80;97.40;;;;;;5004133;28;20771;-35
2022/09/06 01:38:13;;;;;;;8.95;6.32;;;20.60;98.30;;;;;;5005699;28;20042;-36
2022/09/06 01:40:38;;;;;;;9.40;6.13;;;20.70;98.90;;;;;;5005098;28;20034;-35
2022/09/06 01:43:11;;;;;;;10.68;7.88;;;20.70;99.30;;;;;;5008125;28;20091;-36
2022/09/06 01:45:49;;;;;;;12.82;7.00;;;20.60;99.90;;;;;;5005546;28;20104;-35
2022/09/06 01:48:28;;;;;;;10.27;7.47;;;20.60;99.90;;;;;;5003999;28;20668;-36
2022/09/06 01:51:10;;;;;;;10.68;7.07;;;20.50;99.90;;;;;;5005615;28;20483;-36
2022/09/06 01:54:06;;;;;;;9.63;6.13;;;20.60;99.90;;;;;;5003246;28;20046;-35
2022/09/06 01:57:08;;;;;;;12.95;6.72;;;20.60;99.90;;;;;;5006890;28;20041;-36
2022/09/06 02:00:07;;;;;;;8.55;4.85;;;20.60;99.90;;;;;;5004971;28;20391;-36
2022/09/06 02:02:48;;;;;;;6.82;5.35;;;20.60;99.90;;;;;;5010190;28;20057;-35
2022/09/06 02:05:26;;;;;;;8.10;5.53;;;20.60;99.90;;;;;;5010890;28;20495;-36
2022/09/06 02:07:56;;;;;;;7.68;5.15;;;20.60;99.90;;;;;;5007715;28;20046;-35
2022/09/06 02:10:48;;;;;;;7.50;5.57;;;20.60;99.90;;;;;;5008232;28;20129;-35
2022/09/06 02:13:16;;;;;;;8.10;5.18;;;20.70;99.90;;;;;;5009591;28;20403;-34
2022/09/06 02:15:51;;;;;;;10.75;5.43;;;20.70;99.90;;;;;;5009388;28;20069;-36
2022/09/06 02:18:51;;;;;;;10.35;6.63;;;20.70;99.90;;;;;;5007065;28;20372;-37
2022/09/06 02:21:21;;;;;;;9.80;5.97;;;20.70;99.90;;;;;;5003169;28;20053;-34
2022/09/06 02:23:47;;;;;;;8.80;6.10;;;20.70;99.90;;;;;;5005803;28;20483;-35
2022/09/06 02:26:18;;;;;;;7.80;5.47;;;20.70;99.90;;;;;;5003348;28;20050;-35
2022/09/06 02:28:44;;;;;;;11.55;6.10;;;20.70;99.90;;;;;;5005674;28;20054;-36
2022/09/06 02:31:43;;;;;;;7.55;5.32;;;20.70;99.90;;;;;;5007175;28;20042;-36
2022/09/06 02:34:12;;;;;;;7.07;4.07;;;20.70;99.90;;;;;;4958719;28;20056;-35
2022/09/06 02:36:38;;;;;;;8.63;5.35;;;20.70;99.90;;;;;;5011001;28;20106;-36
2022/09/06 02:39:04;;;;;;;9.48;5.28;;;20.70;99.90;;;;;;5009951;28;20042;-36
2022/09/06 02:41:31;;;;;;;8.63;6.20;;;20.60;99.90;;;;;;5009827;28;20041;-36
2022/09/06 02:43:57;;;;;;;7.03;4.78;;;20.60;99.90;;;;;;5009649;28;20038;-36
2022/09/06 02:46:23;;;;;;;8.32;5.10;;;20.60;99.90;;;;;;5009843;28;20096;-35
2022/09/06 02:48:49;;;;;;;8.80;6.70;;;20.60;99.90;;;;;;5008085;28;20056;-37
2022/09/06 02:51:15;;;;;;;10.52;5.72;;;20.60;99.90;;;;;;5010470;28;20042;-35
2022/09/06 02:53:41;;;;;;;8.25;5.85;;;20.60;99.90;;;;;;5011981;28;20049;-36
2022/09/06 02:56:07;;;;;;;7.05;5.05;;;20.60;99.90;;;;;;5009225;28;20128;-36
2022/09/06 02:58:33;;;;;;;6.70;4.97;;;20.60;99.90;;;;;;5007545;28;20168;-35
2022/09/06 03:00:59;;;;;;;9.00;5.95;;;20.60;99.90;;;;;;5009796;28;20495;-34
2022/09/06 03:03:26;;;;;;;12.68;8.30;;;20.50;99.90;;;;;;5008724;28;20038;-35
2022/09/06 03:05:53;;;;;;;12.25;7.68;;;20.50;99.90;;;;;;5008315;28;20491;-38
2022/09/06 03:08:20;;;;;;;9.77;7.97;;;20.40;99.90;;;;;;5009711;28;20491;-35
2022/09/06 03:10:50;;;;;;;9.60;6.13;;;20.30;99.90;;;;;;5005373;28;20038;-36
2022/09/06 03:13:16;;;;;;;7.97;5.88;;;20.30;99.90;;;;;;5009746;28;20124;-36
2022/09/06 03:15:42;;;;;;;10.50;7.10;;;20.30;99.90;;;;;;5009031;28;20061;-36
2022/09/06 03:18:08;;;;;;;8.57;5.30;;;20.30;99.90;;;;;;5008141;28;20590;-36
2022/09/06 03:20:34;;;;;;;10.25;6.68;;;20.30;99.90;;;;;;5010473;28;20133;-34
2022/09/06 03:22:59;;;;;;;8.65;5.47;;;20.30;99.90;;;;;;5010365;28;20032;-35
2022/09/06 03:25:25;;;;;;;7.72;5.68;;;20.30;99.90;;;;;;5008959;28;20038;-36
2022/09/06 03:27:51;;;;;;;11.70;7.53;;;20.30;99.90;;;;;;5008798;28;20061;-35
2022/09/06 03:30:17;;;;;;;11.20;6.93;;;20.30;99.90;;;;;;5004864;28;20050;-35
2022/09/06 03:32:42;;;;;;;10.07;6.18;;;20.20;99.90;;;;;;5007146;28;20041;-36
2022/09/06 03:35:08;;;;;;;8.85;6.93;;;20.20;99.90;;;;;;5008978;28;20044;-35
2022/09/06 03:37:34;;;;;;;11.50;7.82;;;20.20;99.90;;;;;;5010392;28;20048;-36
2022/09/06 03:40:00;;;;;;;9.45;6.55;;;20.20;99.90;;;;;;5008505;28;20503;-35
2022/09/06 03:42:26;;;;;;;11.93;7.05;;;20.20;99.90;;;;;;5007226;28;20034;-35
2022/09/06 03:44:52;;;;;;;9.38;7.50;;;20.20;99.90;;;;;;5006776;28;20565;-36
2022/09/06 03:47:19;;;;;;;10.35;7.35;;;20.20;99.90;;;;;;5009238;28;20038;-36
2022/09/06 03:49:45;;;;;;;8.88;6.05;;;20.10;99.90;;;;;;5009603;28;20466;-36
2022/09/06 03:52:11;;;;;;;8.25;6.63;;;20.10;99.90;;;;;;5007898;28;20057;-36
2022/09/06 03:54:36;;;;;;;9.65;6.28;;;20.10;99.90;;;;;;5009698;28;20046;-34
2022/09/06 03:57:02;;;;;;;8.57;6.75;;;20.10;99.90;;;;;;5007054;28;20407;-39
2022/09/06 03:59:28;;;;;;;7.40;6.13;;;20.00;99.90;;;;;;5007172;28;20386;-39
2022/09/06 04:01:53;;;;;;;8.98;7.13;;;20.00;99.90;;;;;;5010358;28;20046;-36
2022/09/06 04:04:19;;;;;;;9.07;6.55;;;19.90;99.90;;;;;;5008453;28;20034;-40
2022/09/06 04:06:45;;;;;;;10.00;7.40;;;19.90;99.90;;;;;;5009521;28;20136;-40
2022/09/06 04:09:10;;;;;;;10.60;6.63;;;19.90;99.90;;;;;;5005912;28;20042;-42
2022/09/06 04:11:36;;;;;;;7.00;5.20;;;19.90;99.90;;;;;;5009018;28;20128;-39
2022/09/06 04:14:02;;;;;;;10.07;6.18;;;19.80;99.90;;;;;;5009200;28;20048;-39
2022/09/06 04:16:27;;;;;;;7.28;5.85;;;19.80;99.90;;;;;;5009203;28;20030;-42
2022/09/06 04:18:53;;;;;;;7.57;5.00;;;19.80;99.90;;;;;;5005431;28;20038;-37
2022/09/06 04:21:19;;;;;;;8.48;5.88;;;19.70;99.90;;;;;;5010111;28;20060;-36
2022/09/06 04:23:44;;;;;;;6.75;5.40;;;19.70;99.90;;;;;;5006172;28;20542;-36
2022/09/06 04:26:10;;;;;;;6.25;5.10;;;19.70;99.90;;;;;;4999911;28;20117;-36
2022/09/06 04:28:36;;;;;;;8.45;4.75;;;19.60;99.90;;;;;;5005817;28;20389;-35
2022/09/06 04:31:02;;;;;;;7.47;5.90;;;19.60;99.90;;;;;;5007922;28;20504;-35
2022/09/06 04:33:29;;;;;;;9.65;5.55;;;19.50;99.90;;;;;;5007206;28;20565;-35
2022/09/06 04:35:57;;;;;;;7.72;4.70;;;19.50;99.90;;;;;;5007948;28;20084;-36
2022/09/06 04:38:27;;;;;;;10.32;5.30;;;19.50;99.90;;;;;;5006270;28;20036;-36
2022/09/06 04:40:54;;;;;;;6.80;4.63;;;19.40;99.90;;;;;;5005514;28;20104;-36
2022/09/06 04:43:21;;;;;;;9.10;6.65;;;19.40;99.90;;;;;;5008252;28;20038;-35
2022/09/06 04:45:47;;;;;;;7.00;5.35;;;19.40;99.90;;;;;;5007024;28;20041;-36
2022/09/06 04:48:13;;;;;;;6.60;5.72;;;19.30;99.90;;;;;;5006293;28;20050;-36
2022/09/06 04:50:39;;;;;;;6.80;5.18;;;19.40;99.90;;;;;;5007549;28;20033;-36
2022/09/06 04:53:05;;;;;;;9.15;5.00;;;19.30;99.90;;;;;;5008444;28;20057;-36
2022/09/06 04:55:32;;;;;;;9.15;5.82;;;19.20;99.90;;;;;;5005834;28;20128;-35
2022/09/06 04:57:59;;;;;;;6.28;4.97;;;19.20;99.90;;;;;;5012809;28;20496;-35
2022/09/06 05:00:27;;;;;;;6.25;5.60;;;19.20;99.90;;;;;;5007774;28;20046;-35
2022/09/06 05:02:53;;;;;;;7.38;5.45;;;19.10;99.90;;;;;;5005109;28;20037;-36
2022/09/06 05:05:21;;;;;;;8.02;5.25;;;19.10;99.90;;;;;;5007724;28;20037;-35
2022/09/06 05:07:47;;;;;;;8.32;6.03;;;19.10;99.90;;;;;;5007751;28;20504;-40
2022/09/06 05:10:12;;;;;;;7.80;5.82;;;19.10;99.90;;;;;;5008731;28;20057;-41
2022/09/06 05:12:38;;;;;;;6.85;4.95;;;19.10;99.90;;;;;;5006610;28;20042;-38
2022/09/06 05:15:04;;;;;;;7.40;5.32;;;19.10;99.90;;;;;;5008000;28;20129;-36
2022/09/06 05:17:30;;;;;;;7.97;5.40;;;19.10;99.90;;;;;;4997195;28;20038;-37
2022/09/06 05:19:56;;;;;;;6.68;5.03;;;19.10;99.90;;;;;;4995810;28;20037;-34
2022/09/06 05:22:21;;;;;;;6.97;5.22;;;19.10;99.90;;;;;;5007692;28;20038;-38
2022/09/06 05:24:47;;;;;;;7.78;5.50;;;19.10;99.90;;;;;;5002240;28;20397;-36
2022/09/06 05:27:13;;;;;;;5.47;4.40;;;19.00;99.90;;;;;;5002391;28;20038;-36
2022/09/06 05:29:39;;;;;;;4.80;4.30;;;19.00;99.90;;;;;;5003427;28;20115;-36
2022/09/06 05:32:04;;;;;;;6.90;4.68;;;18.90;99.90;;;;;;5006718;28;20073;-35
2022/09/06 05:34:30;;;;;;;7.78;5.32;;;18.90;99.90;;;;;;5005405;28;20034;-35
2022/09/06 05:36:55;;;;;;;5.93;5.07;;;18.80;99.90;;;;;;5008419;28;20033;-34
2022/09/06 05:39:21;;;;;;;5.47;4.60;;;18.90;99.90;;;;;;5000846;28;20147;-44
2022/09/06 05:41:47;;;;;;;8.75;5.75;;;18.80;99.90;;;;;;5004772;28;20172;-39
2022/09/06 05:44:13;;;;;;;8.93;5.68;;;18.90;99.90;;;;;;5002954;28;20296;-40
2022/09/06 05:46:45;;;;;;;7.65;5.93;;;18.90;99.90;;;;;;4998873;28;20061;-41
2022/09/06 05:49:12;;;;;;;7.70;5.70;;;18.90;99.90;;;;;;5009259;28;20082;-41
2022/09/06 05:51:38;;;;;;;8.07;6.32;;;18.90;99.90;;;;;;5007904;28;20917;-39
2022/09/06 05:54:05;;;;;;;8.13;6.50;;;18.90;99.90;;;;;;5004568;28;20411;-39
2022/09/06 05:56:31;;;;;;;10.43;6.68;;;18.90;99.90;;;;;;5008254;28;20038;-42
2022/09/06 05:58:56;;;;;;;8.43;6.90;;;18.80;99.90;;;;;;5005418;28;20030;-40
2022/09/06 06:01:25;;;;;;;10.65;7.35;;;18.70;99.90;;;;;;5001572;28;20570;-42
2022/09/06 06:03:58;;;;;;;8.75;7.28;;;18.70;99.90;;;;;;5004993;28;20033;-39
2022/09/06 06:06:25;;;;;;;6.80;5.50;;;18.60;99.90;;;;;;5005028;28;20215;-42
2022/09/06 06:08:51;;;;;;;7.93;6.32;;;18.70;99.90;;;;;;5014985;28;20037;-41
2022/09/06 06:11:17;;;;;;;7.40;5.65;;;18.70;99.90;;;;;;5005520;28;20116;-40
2022/09/06 06:13:43;;;;;;;10.43;6.82;;;18.80;99.90;;;;;;5001524;28;20088;-38
2022/09/06 06:16:14;;;;;;;7.30;6.15;;;18.80;99.90;;;;;;5001627;28;20042;-42
2022/09/06 06:18:40;;;;;;;9.07;6.85;;;18.70;99.90;;;;;;5004379;28;20046;-37
2022/09/06 06:21:16;;;;;;;9.05;6.03;;;18.70;99.90;;;;;;5003935;28;20157;-36
2022/09/06 06:23:43;;;;;;;7.70;5.63;;;18.70;99.90;;;;;;5002956;28;20049;-35
2022/09/06 06:26:10;;;;;;;9.52;7.70;;;18.80;99.90;;;;;;4999761;28;20691;-35
2022/09/06 06:28:36;;;;;;;9.07;6.43;;;18.80;99.90;;;;;;5003342;28;20059;-38
2022/09/06 06:31:06;;;;;;;9.65;7.03;;;18.80;99.90;;;;;;4998257;28;20054;-38
2022/09/06 06:33:35;;;;;;;12.48;7.57;;;18.80;99.90;;;;;;5003193;28;20057;-38
2022/09/06 06:36:12;;;;;;;8.73;6.93;;;18.90;99.90;;;;;;5002896;28;20415;-38
2022/09/06 06:38:40;;;;;;;7.38;6.43;;;19.00;99.90;;;;;;5002754;28;20045;-38
2022/09/06 06:41:08;;;;;;;6.75;5.55;;;19.00;99.90;;;;;;5001699;28;20034;-38
2022/09/06 06:43:37;;;;;;;8.52;7.63;;;19.10;99.90;;;;;;5001039;28;20311;-38
2022/09/06 06:46:14;;;;;;;9.10;8.20;;;19.10;99.90;;;;;;5001021;28;20780;-38
2022/09/06 06:48:41;;;;;;;10.30;7.60;;;19.10;99.90;;;;;;5002819;28;20038;-37
2022/09/06 06:51:07;;;;;;;8.18;7.28;;;19.20;99.90;;;;;;5003525;28;20104;-38
2022/09/06 06:53:34;;;;;;;9.20;6.88;;;19.30;99.90;;;;;;5009002;28;20053;-37
2022/09/06 06:56:00;;;;;;;8.02;7.10;;;19.30;99.90;;;;;;5005629;28;20165;-37
2022/09/06 06:58:26;;;;;;;8.85;6.80;;;19.30;99.90;;;;;;5008611;28;20181;-37
2022/09/06 07:00:52;;;;;;;10.68;8.15;;;19.40;99.90;;;;;;5005438;28;20499;-37
2022/09/06 07:03:18;;;;;;;9.82;8.13;;;19.50;99.90;;;;;;5004811;28;20038;-38
2022/09/06 07:05:45;;;;;;;8.73;7.82;;;19.60;99.90;;;;;;5013854;28;20064;-38
2022/09/06 07:08:11;;;;;;;9.10;8.02;;;19.60;99.90;;;;;;5007337;28;20046;-38
2022/09/06 07:10:37;;;;;;;12.13;9.32;;;19.70;99.90;;;;;;5005468;28;20483;-38
2022/09/06 07:13:03;;;;;;;10.70;9.57;;;19.70;99.90;;;;;;5004358;28;20103;-37
2022/09/06 07:15:30;;;;;;;14.07;8.18;;;19.70;99.90;;;;;;5004742;28;20037;-37
2022/09/06 07:17:56;;;;;;;12.90;8.15;;;19.70;99.90;;;;;;5007978;28;20506;-37
2022/09/06 07:20:24;;;;;;;9.25;8.18;;;19.80;99.90;;;;;;5001557;28;20038;-36
2022/09/06 07:23:04;;;;;;;10.95;8.82;;;19.90;99.90;;;;;;5005943;28;20041;-37
2022/09/06 07:25:31;;;;;;;7.80;6.70;;;20.00;99.90;;;;;;5002570;28;20076;-38
2022/09/06 07:28:05;;;;;;;10.15;7.50;;;20.10;99.90;;;;;;5004535;28;20034;-37
2022/09/06 07:30:33;;;;;;;9.57;8.32;;;20.10;99.90;;;;;;5005886;28;20033;-38
2022/09/06 07:32:59;;;;;;;11.02;7.47;;;20.30;99.90;;;;;;5008362;28;20045;-37
2022/09/06 07:35:25;;;;;;;8.75;6.95;;;20.40;99.90;;;;;;5006121;28;20040;-37
2022/09/06 07:37:53;;;;;;;7.13;6.40;;;20.50;99.90;;;;;;5007790;28;20446;-37
2022/09/06 07:40:19;;;;;;;13.35;7.80;;;20.60;99.90;;;;;;5003799;28;20045;-37
2022/09/06 07:42:44;;;;;;;11.43;8.50;;;20.70;99.90;;;;;;5010125;28;20100;-37
2022/09/06 07:45:10;;;;;;;10.85;8.68;;;20.80;99.90;;;;;;5007356;28;20042;-37
2022/09/06 07:47:37;;;;;;;10.73;7.95;;;20.80;99.90;;;;;;5008488;28;20087;-37
2022/09/06 07:50:03;;;;;;;13.70;8.10;;;20.80;99.90;;;;;;5008912;28;20117;-37
2022/09/06 07:52:29;;;;;;;10.18;8.15;;;20.90;99.90;;;;;;5008636;28;20418;-37
2022/09/06 07:54:55;;;;;;;8.88;7.43;;;20.90;99.90;;;;;;5008747;28;20087;-37
2022/09/06 07:57:22;;;;;;;10.25;8.93;;;21.00;99.90;;;;;;5004172;28;20054;-36
2022/09/06 07:59:48;;;;;;;10.15;8.85;;;21.10;99.90;;;;;;5007733;28;20491;-37
2022/09/06 08:02:14;;;;;;;12.25;8.30;;;21.20;99.90;;;;;;5007163;28;20053;-38
2022/09/06 08:04:41;;;;;;;12.80;8.27;;;21.30;99.90;;;;;;5006995;28;20033;-37
2022/09/06 08:07:07;;;;;;;11.57;8.10;;;21.40;99.90;;;;;;5003566;28;20049;-37
2022/09/06 08:09:33;;;;;;;8.25;7.35;;;21.50;99.90;;;;;;5007527;28;20038;-37
2022/09/06 08:12:00;;;;;;;11.88;8.77;;;21.60;99.80;;;;;;5003078;28;20189;-38
2022/09/06 08:14:25;;;;;;;7.97;7.15;;;21.70;99.50;;;;;;5006356;28;20099;-36
2022/09/06 08:16:51;;;;;;;8.85;7.85;;;21.80;99.10;;;;;;5002225;28;20045;-38
2022/09/06 08:19:17;;;;;;;9.55;7.70;;;21.90;98.80;;;;;;5005976;28;20752;-37
2022/09/06 08:21:42;;;;;;;8.77;6.88;;;22.00;97.90;;;;;;5004582;28;20491;-38
2022/09/06 08:24:09;;;;;;;9.80;6.85;;;22.10;97.30;;;;;;5007918;28;20404;-39
2022/09/06 08:26:39;;;;;;;9.95;6.82;;;22.20;96.50;;;;;;5002997;28;20084;-37
2022/09/06 08:29:06;;;;;;;9.23;7.57;;;22.30;96.50;;;;;;4994677;28;20560;-37
2022/09/06 08:31:33;;;;;;;10.73;6.68;;;22.50;95.60;;;;;;5003364;28;20501;-36
2022/09/06 08:34:00;;;;;;;13.15;6.47;;;22.50;95.10;;;;;;5003934;28;20044;-37
2022/09/06 08:36:28;;;;;;;8.80;7.65;;;22.60;95.00;;;;;;5006193;28;20117;-37
2022/09/06 08:38:54;;;;;;;9.57;7.30;;;22.70;94.80;;;;;;5006142;28;20069;-37
2022/09/06 08:41:26;;;;;;;10.57;7.65;;;22.80;94.90;;;;;;5004390;28;20057;-37
2022/09/06 08:44:17;;;;;;;7.28;6.38;;;22.90;94.90;;;;;;5005382;28;20069;-37
2022/09/06 08:46:59;;;;;;;7.53;6.55;;;23.10;94.70;;;;;;5005918;28;20050;-37
2022/09/06 08:49:28;;;;;;;;;;;23.20;94.20;;;;;;5004934;28;20108;-36
2022/09/06 08:52:12;;;;;;;7.78;6.93;;;23.30;94.30;;;;;;5003964;28;19929;-38
2022/09/06 08:55:17;;;;;;;9.23;6.60;;;23.40;93.90;;;;;;5009506;28;20079;-38
2022/09/06 08:58:21;;;;;;;6.63;5.18;;;23.60;93.20;;;;;;5003866;28;20054;-36
2022/09/06 09:00:50;;;;;;;7.18;5.70;;;23.70;92.50;;;;;;5003252;28;20133;-38
2022/09/06 09:03:43;;;;;;;6.35;5.38;;;23.80;92.60;;;;;;4999956;28;20033;-38
2022/09/06 09:06:09;;;;;;;6.53;5.72;;;23.90;91.90;;;;;;5003743;28;20388;-37
2022/09/06 09:08:53;;;;;;;7.20;4.95;;;24.00;91.30;;;;;;5005882;28;20084;-37
2022/09/06 09:11:21;;;;;;;7.13;5.15;;;24.10;90.70;;;;;;5002438;28;20516;-37
2022/09/06 09:13:54;;;;;;;7.50;5.22;;;24.20;90.40;;;;;;5006297;28;20040;-34
2022/09/06 09:16:21;;;;;;;9.52;6.55;;;24.30;90.20;;;;;;5004403;28;20052;-35
2022/09/06 09:18:59;;;;;;;7.78;5.80;;;24.40;89.60;;;;;;5006090;28;20384;-35
2022/09/06 09:21:26;;;;;;;7.85;6.28;;;24.50;88.20;;;;;;5004078;28;20686;-36
2022/09/06 09:23:55;;;;;;;7.65;6.85;;;24.60;89.60;;;;;;5002346;28;20026;-35
2022/09/06 09:26:23;;;;;;;7.35;6.05;;;24.60;88.20;;;;;;5006710;28;20045;-36
2022/09/06 09:29:07;;;;;;;7.03;6.20;;;24.60;87.80;;;;;;5004410;28;20136;-36
2022/09/06 09:31:35;;;;;;;9.75;5.97;;;24.70;87.40;;;;;;4999353;28;20130;-34
2022/09/06 09:34:03;;;;;;;8.75;6.25;;;24.80;87.60;;;;;;5005964;28;20510;-36
2022/09/06 09:36:30;;;;;;;7.55;5.60;;;24.80;86.10;;;;;;5005484;28;20129;-36
2022/09/06 09:38:57;;;;;;;10.10;5.57;;;24.90;85.60;;;;;;5008385;28;20038;-35
2022/09/06 09:41:32;;;;;;;8.70;5.22;;;24.90;84.50;;;;;;5006111;28;20439;-35
2022/09/06 09:44:04;;;;;;;7.75;5.80;;;25.00;84.50;;;;;;4999618;28;20080;-37
2022/09/06 09:46:32;;;;;;;8.32;5.93;;;25.10;84.50;;;;;;5002305;28;20053;-38
2022/09/06 09:49:12;;;;;;;6.15;4.22;;;25.10;84.20;;;;;;5002569;28;20503;-38
2022/09/06 09:51:43;;;;;;;6.05;3.70;;;25.20;83.30;;;;;;5000137;28;20057;-38
2022/09/06 09:54:28;;;;;;;4.65;4.13;;;25.30;80.60;;;;;;4998078;28;21280;-39
2022/09/06 09:56:55;;;;;;;6.20;3.67;;;25.30;79.30;;;;;;4997431;28;20072;-38
2022/09/06 09:59:32;;;;;;;4.22;2.42;;;25.40;80.00;;;;;;5004180;28;20125;-38
2022/09/06 10:02:00;;;;;;;3.97;2.00;;;25.50;75.30;;;;;;5004576;28;20104;-40
2022/09/06 10:04:34;;;;;;;3.55;1.60;;;25.60;75.30;;;;;;5002466;28;20125;-38
2022/09/06 10:07:30;;;;;;;4.50;2.60;;;25.60;74.20;;;;;;5006223;28;20492;-39
2022/09/06 10:10:05;;;;;;;3.63;1.80;;;25.80;74.30;;;;;;4997830;28;20411;-39
2022/09/06 10:12:39;;;;;;;5.78;2.63;;;25.90;73.90;;;;;;5004159;28;20085;-35
2022/09/06 10:15:08;;;;;;;5.35;2.90;;;25.90;73.50;;;;;;5002955;28;20530;-36
2022/09/06 10:17:43;;;;;;;4.15;2.92;;;25.90;74.50;;;;;;5004691;28;20056;-35
2022/09/06 10:20:11;;;;;;;4.30;2.20;;;26.10;72.90;;;;;;5005816;28;20038;-41
2022/09/06 10:23:10;;;;;;;5.43;2.17;;;26.20;73.20;;;;;;5008735;28;20044;-35
2022/09/06 10:25:44;;;;;;;3.05;1.70;;;26.30;70.80;;;;;;5001023;28;20116;-35
2022/09/06 10:28:26;;;;;;;3.80;1.40;;;26.30;70.00;;;;;;5008922;28;20042;-36
2022/09/06 10:31:26;;;;;;;2.53;1.30;;;26.40;70.10;;;;;;5005316;28;20054;-35
2022/09/06 10:34:07;;;;;;;3.28;1.40;;;26.60;68.30;;;;;;5006754;28;20491;-35
2022/09/06 10:36:49;;;;;;;2.70;1.43;;;26.70;68.30;;;;;;5011685;28;20045;-35
2022/09/06 10:39:36;;;;;;;4.82;1.73;;;26.90;65.70;;;;;;5006103;28;20313;-35
2022/09/06 10:42:18;;;;;;;6.15;2.03;;;27.00;65.70;;;;;;5006894;28;20472;-34
2022/09/06 10:45:25;;;;;;;4.57;2.20;;;27.00;64.90;;;;;;5008786;28;20073;-34
2022/09/06 10:47:56;;;;;;;4.35;1.85;;;27.00;62.70;;;;;;4997120;28;20414;-35
2022/09/06 10:50:45;;;;;;;3.83;1.30;;;27.10;62.90;;;;;;4988161;28;20043;-34
2022/09/06 10:53:46;;;;;;;3.20;1.35;;;27.20;62.90;;;;;;4986077;28;20085;-35
2022/09/06 10:56:19;;;;;;;4.30;1.42;;;27.40;60.20;;;;;;4975007;28;20042;-36
2022/09/06 10:58:56;;;;;;;4.40;1.30;;;27.50;59.70;;;;;;4990142;28;20051;-34
2022/09/06 11:01:34;;;;;;;3.83;2.08;;;27.70;58.50;;;;;;4991419;28;20116;-37
2022/09/06 11:04:02;;;;;;;3.92;1.60;;;27.80;54.80;;;;;;4988529;28;20115;-37
2022/09/06 11:06:33;;;;;;;2.65;1.60;;;27.90;56.70;;;;;;4968144;28;20058;-38
2022/09/06 11:09:11;;;;;;;3.75;1.80;;;28.10;54.30;;;;;;4987098;28;20138;-34
2022/09/06 11:11:46;;;;;;;2.55;1.67;;;28.20;52.20;;;;;;4984160;28;20116;-36
2022/09/06 11:14:13;;;;;;;7.07;1.83;;;28.30;50.60;;;;;;4980814;28;20074;-34
2022/09/06 11:17:10;;;;;;;3.17;1.75;;;28.20;50.60;;;;;;4981310;28;20121;-38
2022/09/06 11:19:46;;;;;;;2.00;1.33;;;28.20;50.30;;;;;;4971892;28;20073;-42
2022/09/06 11:22:30;;;;;;;3.38;1.20;;;28.00;51.30;;;;;;4987359;28;20495;-39
2022/09/06 11:25:17;;;;;;;2.15;1.20;;;28.10;52.10;;;;;;4986638;28;20042;-36
2022/09/06 11:27:49;;;;;;;1.80;1.00;;;28.40;49.50;;;;;;4982039;28;20030;-40
2022/09/06 11:30:16;;;;;;;3.17;1.20;;;28.50;48.00;;;;;;4976264;28;20144;-40
2022/09/06 11:32:49;;;;;;;2.75;1.10;;;28.60;47.40;;;;;;4976881;28;20168;-36
2022/09/06 11:35:27;;;;;;;1.42;1.10;;;28.70;46.40;;;;;;4970487;28;20551;-40
2022/09/06 11:38:01;;;;;;;2.50;0.90;;;28.70;45.80;;;;;;4982851;28;20125;-44
2022/09/06 11:40:35;;;;;;;1.80;0.90;;;28.70;46.30;;;;;;4988175;28;20026;-39
2022/09/06 11:43:02;;;;;;;1.40;0.80;;;28.80;45.70;;;;;;4978653;28;20089;-40
2022/09/06 11:45:50;;;;;;;1.88;0.90;;;28.80;45.30;;;;;;4988506;28;20125;-42
2022/09/06 11:48:25;;;;;;;3.15;1.02;;;28.80;45.20;;;;;;5004839;28;20050;-37
2022/09/06 11:51:00;;;;;;;5.55;1.27;;;29.00;44.90;;;;;;5008628;28;20057;-38
2022/09/06 11:53:33;;;;;;;1.98;1.10;;;29.10;44.80;;;;;;5009078;28;20495;-37
2022/09/06 11:56:01;;;;;;;2.38;1.00;;;29.30;44.40;;;;;;5006390;28;20080;-36
2022/09/06 11:58:58;;;;;;;3.85;1.10;;;29.30;43.80;;;;;;5005977;28;20041;-35
2022/09/06 12:01:23;;;;;;;3.30;1.15;;;29.50;43.70;;;;;;5006419;28;20034;-35
2022/09/06 12:03:52;;;;;;;2.35;1.10;;;29.60;43.70;;;;;;5003667;28;20034;-34
2022/09/06 12:06:25;;;;;;;3.05;1.33;;;29.60;43.30;;;;;;5006164;28;20037;-34
2022/09/06 12:08:53;;;;;;;2.05;0.98;;;29.50;43.00;;;;;;5001067;28;20037;-35
2022/09/06 12:11:33;;;;;;;2.47;1.30;;;29.10;43.60;;;;;;4992735;28;20092;-36
2022/09/06 12:14:05;;;;;;;3.10;1.63;;;29.00;43.40;;;;;;4990100;28;20044;-35
2022/09/06 12:16:56;;;;;;;3.85;1.30;;;29.00;43.80;;;;;;4999859;28;20148;-34
2022/09/06 12:19:43;;;;;;;3.00;1.35;;;29.10;44.00;;;;;;5004178;28;20096;-34
2022/09/06 12:22:36;;;;;;;2.95;1.20;;;29.30;43.50;;;;;;5008121;28;20084;-34
2022/09/06 12:25:01;;;;;;;3.42;1.20;;;29.30;42.70;;;;;;5004486;28;20123;-34
2022/09/06 12:27:51;;;;;;;2.55;1.10;;;29.30;43.00;;;;;;5004538;28;20489;-34
2022/09/06 12:30:40;;;;;;;5.40;1.83;;;29.50;42.60;;;;;;5004753;28;20042;-35
2022/09/06 12:33:23;;;;;;;3.60;1.13;;;29.70;42.00;;;;;;5005211;28;20046;-34
2022/09/06 12:35:49;;;;;;;6.18;1.70;;;29.90;41.80;;;;;;5006017;28;20487;-34
2022/09/06 12:38:20;;;;;;;8.75;1.92;;;29.80;41.40;;;;;;5004650;28;20058;-34
2022/09/06 12:40:50;;;;;;;5.20;1.38;;;29.70;42.10;;;;;;5005820;28;20117;-35
2022/09/06 12:43:17;;;;;;;2.92;1.40;;;29.70;41.90;;;;;;4992545;28;20046;-35
2022/09/06 12:45:49;;;;;;;3.33;1.50;;;29.70;42.20;;;;;;5002337;28;20041;-34
2022/09/06 12:48:32;;;;;;;;;;;29.80;42.20;;;;;;5001246;28;20085;-36
2022/09/06 12:51:18;;;;;;;3.90;1.13;;;30.00;41.70;;;;;;5004143;28;19992;-36
2022/09/06 12:53:52;;;;;;;4.13;1.42;;;30.20;40.80;;;;;;5002610;28;20042;-35
2022/09/06 12:56:22;;;;;;;3.47;1.40;;;30.40;40.10;;;;;;4996468;28;20041;-36
2022/09/06 12:58:48;;;;;;;2.47;1.08;;;30.60;39.60;;;;;;5001033;28;20054;-39
2022/09/06 13:01:21;;;;;;;2.83;1.45;;;30.80;39.10;;;;;;5004739;28;20044;-39
2022/09/06 13:03:59;;;;;;;5.95;1.60;;;31.10;37.90;;;;;;5001785;28;21307;-38
2022/09/06 13:06:26;;;;;;;5.63;1.30;;;31.10;38.50;;;;;;5003694;28;20062;-39
2022/09/06 13:08:54;;;;;;;3.05;1.33;;;30.50;39.30;;;;;;5002156;28;20037;-36